^^
Saratoga-Weather Station Historical Data
Daily Summary for October 30, 2020 Units:  Both    English   Metric
Daily Weekly Monthly Yearly Custom
  High: Low: Average:
Temperature: 58.1 °F /  14.5 °C 54.9 °F /  12.7 °C 55.8 °F /  13.2 °C
Dew Point: 54.3 °F /  12.4 °C 52.9 °F /  11.6 °C 53.4 °F /  11.9 °C
Humidity: 94% 86% 92%
Wind Speed: 12.1mph /  19.5km/h - 2.1mph /  3.4km/h
Wind Gust: 12mph /  19.3km/h - -
Wind- - WSW
Pressure: 30.2 in /  1023.4 hPa 30.1 in /  1020.0 hPa -
Precipitation: 0.03 in /  0.8 mm    
Historical Graphs
 
 
Tabular Data for October 30, 2020
Time Temperature Dew Point Pressure Wind Wind Speed Wind Gust Humidity Rainfall Rate (Hourly) solar
00:01 55 °F /  12.8 °C 53.1 °F /  11.7 °C 30.1in /  1020.3hPa NNW 2.9mph /  4.7km/h 6mph /  9.7km/h 93% 0in /  0.0mm 0 W/m2
00:06 55 °F /  12.8 °C 53.1 °F /  11.7 °C 30.1in /  1020.3hPa NNW 2.9mph /  4.7km/h 5mph /  8km/h 93% 0in /  0.0mm 0 W/m2
00:11 55 °F /  12.8 °C 53.1 °F /  11.7 °C 30.1in /  1020.3hPa NNE 2mph /  3.2km/h 5mph /  8km/h 93% 0in /  0.0mm 0 W/m2
00:16 55 °F /  12.8 °C 53.1 °F /  11.7 °C 30.1in /  1020.3hPa NW 8.9mph /  14.3km/h 9mph /  14.5km/h 93% 0in /  0.0mm 0 W/m2
00:21 55 °F /  12.8 °C 53.1 °F /  11.7 °C 30.1in /  1020.3hPa NW 2.9mph /  4.7km/h 5mph /  8km/h 93% 0in /  0.0mm 0 W/m2
00:26 55 °F /  12.8 °C 53.1 °F /  11.7 °C 30.1in /  1020.3hPa North 0.9mph /  1.4km/h 5mph /  8km/h 93% 0in /  0.0mm 0 W/m2
00:31 55 °F /  12.8 °C 53.1 °F /  11.7 °C 30.1in /  1020.3hPa NW 4mph /  6.4km/h 7mph /  11.3km/h 93% 0in /  0.0mm 0 W/m2
00:36 55.2 °F /  12.9 °C 53.2 °F /  11.8 °C 30.1in /  1020.3hPa WNW 2mph /  3.2km/h 5mph /  8km/h 93% 0in /  0.0mm 0 W/m2
00:41 55.2 °F /  12.9 °C 53.2 °F /  11.8 °C 30.1in /  1020.3hPa South 2.9mph /  4.7km/h 7mph /  11.3km/h 93% 0in /  0.0mm 0 W/m2
00:46 55.2 °F /  12.9 °C 53.2 °F /  11.8 °C 30.1in /  1020.3hPa East 0.9mph /  1.4km/h 4mph /  6.4km/h 93% 0in /  0.0mm 0 W/m2
00:51 55 °F /  12.8 °C 53.1 °F /  11.7 °C 30.1in /  1020.3hPa West 0.9mph /  1.4km/h 11mph /  17.7km/h 93% 0in /  0.0mm 0 W/m2
00:56 55 °F /  12.8 °C 53.1 °F /  11.7 °C 30.1in /  1020.3hPa WNW 2.9mph /  4.7km/h 8mph /  12.9km/h 93% 0in /  0.0mm 0 W/m2
01:02 55 °F /  12.8 °C 53.1 °F /  11.7 °C 30.1in /  1020.3hPa ESE 4mph /  6.4km/h 11mph /  17.7km/h 93% 0in /  0.0mm 0 W/m2
01:07 55 °F /  12.8 °C 53.4 °F /  11.9 °C 30.1in /  1020.3hPa NW 4mph /  6.4km/h 5mph /  8km/h 94% 0in /  0.0mm 0 W/m2
01:12 55 °F /  12.8 °C 53.4 °F /  11.9 °C 30.1in /  1020.0hPa NW 0.9mph /  1.4km/h 7mph /  11.3km/h 94% 0.01in /  0.2mm 0 W/m2
01:17 55 °F /  12.8 °C 53.4 °F /  11.9 °C 30.1in /  1020.0hPa NNE 0.9mph /  1.4km/h 4mph /  6.4km/h 94% 0.01in /  0.2mm 0 W/m2
01:22 55 °F /  12.8 °C 53.4 °F /  11.9 °C 30.1in /  1020.0hPa SSW 2mph /  3.2km/h 4mph /  6.4km/h 94% 0.01in /  0.2mm 0 W/m2
01:27 55 °F /  12.8 °C 53.4 °F /  11.9 °C 30.1in /  1020.0hPa NW 2.9mph /  4.7km/h 9mph /  14.5km/h 94% 0.01in /  0.2mm 0 W/m2
01:32 55.2 °F /  12.9 °C 53.6 °F /  12 °C 30.1in /  1020.0hPa Calm   4mph /  6.4km/h 94% 0.01in /  0.2mm 0 W/m2
01:37 55.2 °F /  12.9 °C 53.6 °F /  12 °C 30.1in /  1020.0hPa North 2mph /  3.2km/h 9mph /  14.5km/h 94% 0.01in /  0.2mm 0 W/m2
01:42 55.2 °F /  12.9 °C 53.6 °F /  12 °C 30.1in /  1020.0hPa NNE 2mph /  3.2km/h 4mph /  6.4km/h 94% 0.01in /  0.2mm 0 W/m2
01:47 55.2 °F /  12.9 °C 53.6 °F /  12 °C 30.1in /  1020.0hPa North 2mph /  3.2km/h 3mph /  4.8km/h 94% 0.01in /  0.2mm 0 W/m2
01:52 55.2 °F /  12.9 °C 53.6 °F /  12 °C 30.1in /  1020.0hPa NW 4.9mph /  7.9km/h 7mph /  11.3km/h 94% 0.01in /  0.2mm 0 W/m2
01:57 55.2 °F /  12.9 °C 53.6 °F /  12 °C 30.1in /  1020.0hPa NNW 2mph /  3.2km/h 4mph /  6.4km/h 94% 0.01in /  0.2mm 0 W/m2
02:02 55.4 °F /  13 °C 53.8 °F /  12.1 °C 30.1in /  1020.0hPa WNW 2mph /  3.2km/h 4mph /  6.4km/h 94% 0.01in /  0.2mm 0 W/m2
02:07 55.6 °F /  13.1 °C 54 °F /  12.2 °C 30.1in /  1020.0hPa Calm   5mph /  8km/h 94% 0.01in /  0.2mm 0 W/m2
02:12 55.6 °F /  13.1 °C 54 °F /  12.2 °C 30.1in /  1020.0hPa WNW 2.9mph /  4.7km/h 4mph /  6.4km/h 94% 0in /  0.0mm 0 W/m2
02:17 55.6 °F /  13.1 °C 53.6 °F /  12 °C 30.1in /  1020.0hPa SSW 0.9mph /  1.4km/h 2mph /  3.2km/h 93% 0in /  0.0mm 0 W/m2
02:22 55.8 °F /  13.2 °C 53.8 °F /  12.1 °C 30.1in /  1020.0hPa West 6mph /  9.7km/h 6mph /  9.7km/h 93% 0in /  0.0mm 0 W/m2
02:27 55.8 °F /  13.2 °C 53.8 °F /  12.1 °C 30.1in /  1020.0hPa West 6mph /  9.7km/h 9mph /  14.5km/h 93% 0in /  0.0mm 0 W/m2
02:32 55.9 °F /  13.3 °C 54 °F /  12.2 °C 30.1in /  1020.3hPa West 4mph /  6.4km/h 10mph /  16.1km/h 93% 0in /  0.0mm 0 W/m2
02:37 55.9 °F /  13.3 °C 54 °F /  12.2 °C 30.1in /  1020.0hPa WNW 2mph /  3.2km/h 4mph /  6.4km/h 93% 0in /  0.0mm 0 W/m2
02:42 55.9 °F /  13.3 °C 53.6 °F /  12 °C 30.1in /  1020.3hPa WSW 2mph /  3.2km/h 8mph /  12.9km/h 92% 0in /  0.0mm 0 W/m2
02:47 55.9 °F /  13.3 °C 53.6 °F /  12 °C 30.1in /  1020.3hPa West 2.9mph /  4.7km/h 6mph /  9.7km/h 92% 0in /  0.0mm 0 W/m2
02:52 55.9 °F /  13.3 °C 53.6 °F /  12 °C 30.1in /  1020.3hPa West 6.9mph /  11.1km/h 8mph /  12.9km/h 92% 0in /  0.0mm 0 W/m2
02:57 55.9 °F /  13.3 °C 53.6 °F /  12 °C 30.1in /  1020.3hPa West 2.9mph /  4.7km/h 9mph /  14.5km/h 92% 0in /  0.0mm 0 W/m2
03:02 55.9 °F /  13.3 °C 53.6 °F /  12 °C 30.1in /  1020.3hPa North 2mph /  3.2km/h 10mph /  16.1km/h 92% 0in /  0.0mm 0 W/m2
03:07 55.9 °F /  13.3 °C 53.6 °F /  12 °C 30.1in /  1020.3hPa Calm   2mph /  3.2km/h 92% 0in /  0.0mm 0 W/m2
03:12 55.9 °F /  13.3 °C 53.6 °F /  12 °C 30.1in /  1020.3hPa NW 0.9mph /  1.4km/h 10mph /  16.1km/h 92% 0in /  0.0mm 0 W/m2
03:17 55.9 °F /  13.3 °C 53.6 °F /  12 °C 30.1in /  1020.7hPa North 0.9mph /  1.4km/h 5mph /  8km/h 92% 0in /  0.0mm 0 W/m2
03:22 55.9 °F /  13.3 °C 53.6 °F /  12 °C 30.1in /  1020.3hPa NNW 6mph /  9.7km/h 11mph /  17.7km/h 92% 0in /  0.0mm 0 W/m2
03:27 55.9 °F /  13.3 °C 53.6 °F /  12 °C 30.1in /  1020.3hPa NNE 0.9mph /  1.4km/h 4mph /  6.4km/h 92% 0in /  0.0mm 0 W/m2
03:32 55.9 °F /  13.3 °C 53.6 °F /  12 °C 30.1in /  1020.3hPa WSW 12.1mph /  19.5km/h 12mph /  19.3km/h 92% 0in /  0.0mm 0 W/m2
03:37 55.9 °F /  13.3 °C 53.6 °F /  12 °C 30.1in /  1020.3hPa West 8.9mph /  14.3km/h 9mph /  14.5km/h 92% 0in /  0.0mm 0 W/m2
03:42 55.9 °F /  13.3 °C 53.6 °F /  12 °C 30.1in /  1020.3hPa WNW 4mph /  6.4km/h 4mph /  6.4km/h 92% 0in /  0.0mm 0 W/m2
03:47 55.9 °F /  13.3 °C 53.6 °F /  12 °C 30.1in /  1020.3hPa East 2.9mph /  4.7km/h 3mph /  4.8km/h 92% 0in /  0.0mm 0 W/m2
03:52 55.9 °F /  13.3 °C 53.4 °F /  11.9 °C 30.1in /  1020.3hPa WNW 0.9mph /  1.4km/h 3mph /  4.8km/h 91% 0in /  0.0mm 0 W/m2
03:57 55.9 °F /  13.3 °C 53.4 °F /  11.9 °C 30.1in /  1020.3hPa WSW 2mph /  3.2km/h 4mph /  6.4km/h 91% 0in /  0.0mm 0 W/m2
04:02 55.9 °F /  13.3 °C 53.4 °F /  11.9 °C 30.1in /  1020.3hPa West 2mph /  3.2km/h 4mph /  6.4km/h 91% 0in /  0.0mm 0 W/m2
04:07 55.9 °F /  13.3 °C 53.4 °F /  11.9 °C 30.1in /  1020.7hPa West 2.9mph /  4.7km/h 6mph /  9.7km/h 91% 0in /  0.0mm 0 W/m2
04:12 55.9 °F /  13.3 °C 53.4 °F /  11.9 °C 30.1in /  1020.7hPa WSW 0.9mph /  1.4km/h 4mph /  6.4km/h 91% 0in /  0.0mm 0 W/m2
04:17 55.9 °F /  13.3 °C 53.4 °F /  11.9 °C 30.1in /  1020.7hPa North 2.9mph /  4.7km/h 7mph /  11.3km/h 91% 0in /  0.0mm 0 W/m2
04:22 55.9 °F /  13.3 °C 53.4 °F /  11.9 °C 30.1in /  1020.7hPa West 2mph /  3.2km/h 7mph /  11.3km/h 91% 0in /  0.0mm 0 W/m2
04:27 55.9 °F /  13.3 °C 53.4 °F /  11.9 °C 30.1in /  1020.7hPa West 0.9mph /  1.4km/h 6mph /  9.7km/h 91% 0in /  0.0mm 0 W/m2
04:32 55.9 °F /  13.3 °C 53.4 °F /  11.9 °C 30.1in /  1020.7hPa WSW 0.9mph /  1.4km/h 7mph /  11.3km/h 91% 0in /  0.0mm 0 W/m2
04:37 55.9 °F /  13.3 °C 53.4 °F /  11.9 °C 30.1in /  1020.7hPa NW 0.9mph /  1.4km/h 2mph /  3.2km/h 91% 0in /  0.0mm 0 W/m2
04:42 55.9 °F /  13.3 °C 53.4 °F /  11.9 °C 30.1in /  1020.7hPa Calm   3mph /  4.8km/h 91% 0in /  0.0mm 0 W/m2
04:47 55.9 °F /  13.3 °C 53.6 °F /  12 °C 30.1in /  1020.7hPa WNW 4.9mph /  7.9km/h 5mph /  8km/h 92% 0in /  0.0mm 0 W/m2
04:52 55.9 °F /  13.3 °C 53.4 °F /  11.9 °C 30.2in /  1021.0hPa SSW 2mph /  3.2km/h 8mph /  12.9km/h 91% 0in /  0.0mm 0 W/m2
04:57 55.9 °F /  13.3 °C 53.4 °F /  11.9 °C 30.2in /  1021.0hPa NNW 4mph /  6.4km/h 4mph /  6.4km/h 91% 0in /  0.0mm 0 W/m2
05:02 55.9 °F /  13.3 °C 53.4 °F /  11.9 °C 30.2in /  1021.0hPa West 4mph /  6.4km/h 8mph /  12.9km/h 91% 0in /  0.0mm 0 W/m2
05:07 55.9 °F /  13.3 °C 53.4 °F /  11.9 °C 30.1in /  1020.7hPa WSW 0.9mph /  1.4km/h 3mph /  4.8km/h 91% 0in /  0.0mm 0 W/m2
05:12 55.9 °F /  13.3 °C 53.4 °F /  11.9 °C 30.1in /  1020.7hPa WSW 4.9mph /  7.9km/h 9mph /  14.5km/h 91% 0in /  0.0mm 0 W/m2
05:17 55.9 °F /  13.3 °C 53.4 °F /  11.9 °C 30.1in /  1020.7hPa NW 0.9mph /  1.4km/h 7mph /  11.3km/h 91% 0in /  0.0mm 0 W/m2
05:22 55.8 °F /  13.2 °C 53.2 °F /  11.8 °C 30.1in /  1020.7hPa Calm   2mph /  3.2km/h 91% 0in /  0.0mm 0 W/m2
05:27 55.8 °F /  13.2 °C 53.2 °F /  11.8 °C 30.2in /  1021.0hPa WNW 0.9mph /  1.4km/h 3mph /  4.8km/h 91% 0in /  0.0mm 0 W/m2
05:32 55.6 °F /  13.1 °C 53.1 °F /  11.7 °C 30.2in /  1021.0hPa WSW 0.9mph /  1.4km/h 3mph /  4.8km/h 91% 0in /  0.0mm 0 W/m2
05:37 55.6 °F /  13.1 °C 53.2 °F /  11.8 °C 30.2in /  1021.0hPa WSW 2mph /  3.2km/h 4mph /  6.4km/h 92% 0in /  0.0mm 0 W/m2
05:42 55.8 °F /  13.2 °C 53.4 °F /  11.9 °C 30.2in /  1021.0hPa North 4mph /  6.4km/h 7mph /  11.3km/h 92% 0in /  0.0mm 0 W/m2
05:47 55.8 °F /  13.2 °C 53.4 °F /  11.9 °C 30.2in /  1021.0hPa West 2mph /  3.2km/h 5mph /  8km/h 92% 0in /  0.0mm 0 W/m2
05:52 55.6 °F /  13.1 °C 53.2 °F /  11.8 °C 30.2in /  1021.3hPa Calm   3mph /  4.8km/h 92% 0in /  0.0mm 0 W/m2
05:58 55.4 °F /  13 °C 53.1 °F /  11.7 °C 30.2in /  1021.3hPa WNW 2mph /  3.2km/h 3mph /  4.8km/h 92% 0in /  0.0mm 0 W/m2
06:03 55.2 °F /  12.9 °C 53.2 °F /  11.8 °C 30.2in /  1021.3hPa NW 2mph /  3.2km/h 3mph /  4.8km/h 93% 0.01in /  0.2mm 0 W/m2
06:08 55 °F /  12.8 °C 53.1 °F /  11.7 °C 30.2in /  1021.3hPa NNW 2mph /  3.2km/h 4mph /  6.4km/h 93% 0.01in /  0.2mm 0 W/m2
06:13 54.9 °F /  12.7 °C 52.9 °F /  11.6 °C 30.2in /  1021.0hPa North 0.9mph /  1.4km/h 3mph /  4.8km/h 93% 0.02in /  0.5mm 0 W/m2
06:18 54.9 °F /  12.7 °C 53.2 °F /  11.8 °C 30.2in /  1021.3hPa WNW 2mph /  3.2km/h 3mph /  4.8km/h 94% 0.02in /  0.5mm 0 W/m2
06:23 54.9 °F /  12.7 °C 53.2 °F /  11.8 °C 30.2in /  1021.0hPa West 2.9mph /  4.7km/h 6mph /  9.7km/h 94% 0.02in /  0.5mm 0 W/m2
06:28 54.9 °F /  12.7 °C 53.2 °F /  11.8 °C 30.2in /  1021.0hPa Calm   4mph /  6.4km/h 94% 0.02in /  0.5mm 0 W/m2
06:33 54.9 °F /  12.7 °C 53.2 °F /  11.8 °C 30.2in /  1021.0hPa WNW 0.9mph /  1.4km/h 3mph /  4.8km/h 94% 0.02in /  0.5mm 0 W/m2
06:38 54.9 °F /  12.7 °C 53.2 °F /  11.8 °C 30.2in /  1021.3hPa WNW 6.9mph /  11.1km/h 10mph /  16.1km/h 94% 0.02in /  0.5mm 0 W/m2
06:43 54.9 °F /  12.7 °C 53.2 °F /  11.8 °C 30.2in /  1021.3hPa NW 2mph /  3.2km/h 4mph /  6.4km/h 94% 0.02in /  0.5mm 0 W/m2
06:48 54.9 °F /  12.7 °C 53.2 °F /  11.8 °C 30.2in /  1021.0hPa West 2.9mph /  4.7km/h 10mph /  16.1km/h 94% 0.02in /  0.5mm 0 W/m2
06:53 54.9 °F /  12.7 °C 53.2 °F /  11.8 °C 30.2in /  1021.0hPa East 0.9mph /  1.4km/h 3mph /  4.8km/h 94% 0.02in /  0.5mm 0 W/m2
06:58 54.9 °F /  12.7 °C 53.2 °F /  11.8 °C 30.2in /  1021.3hPa NW 6mph /  9.7km/h 8mph /  12.9km/h 94% 0.02in /  0.5mm 0 W/m2
07:03 54.9 °F /  12.7 °C 53.2 °F /  11.8 °C 30.2in /  1021.3hPa NNE 2mph /  3.2km/h 3mph /  4.8km/h 94% 0.02in /  0.5mm 0 W/m2
07:08 54.9 °F /  12.7 °C 53.2 °F /  11.8 °C 30.2in /  1021.3hPa SE 8mph /  12.9km/h 8mph /  12.9km/h 94% 0.02in /  0.5mm 0 W/m2
07:13 54.9 °F /  12.7 °C 53.2 °F /  11.8 °C 30.2in /  1021.3hPa East 0.9mph /  1.4km/h 2mph /  3.2km/h 94% 0.01in /  0.2mm 0 W/m2
07:18 54.9 °F /  12.7 °C 53.2 °F /  11.8 °C 30.2in /  1021.0hPa WSW 0.9mph /  1.4km/h 4mph /  6.4km/h 94% 0.01in /  0.2mm 0 W/m2
07:23 54.9 °F /  12.7 °C 53.2 °F /  11.8 °C 30.2in /  1021.3hPa West 2.9mph /  4.7km/h 8mph /  12.9km/h 94% 0.01in /  0.2mm 0 W/m2
07:28 54.9 °F /  12.7 °C 52.9 °F /  11.6 °C 30.2in /  1021.3hPa NW 2.9mph /  4.7km/h 8mph /  12.9km/h 93% 0.01in /  0.2mm 5 W/m2
07:33 54.9 °F /  12.7 °C 52.9 °F /  11.6 °C 30.2in /  1021.3hPa SW 2.9mph /  4.7km/h 6mph /  9.7km/h 93% 0in /  0.0mm 5 W/m2
07:38 54.9 °F /  12.7 °C 52.9 °F /  11.6 °C 30.2in /  1021.3hPa North 2mph /  3.2km/h 4mph /  6.4km/h 93% 0in /  0.0mm 7 W/m2
07:43 54.9 °F /  12.7 °C 52.9 °F /  11.6 °C 30.2in /  1021.3hPa West 2mph /  3.2km/h 6mph /  9.7km/h 93% 0in /  0.0mm 7 W/m2
07:48 55 °F /  12.8 °C 53.1 °F /  11.7 °C 30.2in /  1021.3hPa NW 4mph /  6.4km/h 4mph /  6.4km/h 93% 0in /  0.0mm 9 W/m2
07:53 55 °F /  12.8 °C 53.1 °F /  11.7 °C 30.2in /  1021.3hPa South 2.9mph /  4.7km/h 3mph /  4.8km/h 93% 0in /  0.0mm 9 W/m2
07:58 55 °F /  12.8 °C 53.1 °F /  11.7 °C 30.2in /  1021.7hPa NW 0.9mph /  1.4km/h 7mph /  11.3km/h 93% 0in /  0.0mm 14 W/m2
08:03 55 °F /  12.8 °C 53.1 °F /  11.7 °C 30.2in /  1021.7hPa Calm   2mph /  3.2km/h 93% 0in /  0.0mm 16 W/m2
08:08 55 °F /  12.8 °C 53.1 °F /  11.7 °C 30.2in /  1021.7hPa SW 0.9mph /  1.4km/h 5mph /  8km/h 93% 0in /  0.0mm 25 W/m2
08:13 55 °F /  12.8 °C 53.1 °F /  11.7 °C 30.2in /  1022.0hPa WSW 6.9mph /  11.1km/h 11mph /  17.7km/h 93% 0in /  0.0mm 21 W/m2
08:18 55.2 °F /  12.9 °C 53.2 °F /  11.8 °C 30.2in /  1022.0hPa NW 0.9mph /  1.4km/h 3mph /  4.8km/h 93% 0in /  0.0mm 21 W/m2
08:23 55.2 °F /  12.9 °C 53.2 °F /  11.8 °C 30.2in /  1022.0hPa West 0.9mph /  1.4km/h 11mph /  17.7km/h 93% 0in /  0.0mm 19 W/m2
08:28 55.2 °F /  12.9 °C 53.2 °F /  11.8 °C 30.2in /  1022.0hPa NW 2.9mph /  4.7km/h 8mph /  12.9km/h 93% 0in /  0.0mm 9 W/m2
08:33 55.2 °F /  12.9 °C 52.9 °F /  11.6 °C 30.2in /  1022.0hPa South 2mph /  3.2km/h 4mph /  6.4km/h 92% 0in /  0.0mm 12 W/m2
08:38 55.2 °F /  12.9 °C 52.9 °F /  11.6 °C 30.2in /  1022.0hPa Calm   8mph /  12.9km/h 92% 0in /  0.0mm 25 W/m2
08:43 55.2 °F /  12.9 °C 52.9 °F /  11.6 °C 30.2in /  1022.0hPa Calm   3mph /  4.8km/h 92% 0in /  0.0mm 46 W/m2
08:48 55.2 °F /  12.9 °C 52.9 °F /  11.6 °C 30.2in /  1022.0hPa NW 0.9mph /  1.4km/h 12mph /  19.3km/h 92% 0in /  0.0mm 40 W/m2
08:53 55.2 °F /  12.9 °C 53.2 °F /  11.8 °C 30.2in /  1022.4hPa Calm   3mph /  4.8km/h 93% 0in /  0.0mm 19 W/m2
08:58 55.2 °F /  12.9 °C 53.2 °F /  11.8 °C 30.2in /  1022.4hPa WNW 0.9mph /  1.4km/h 10mph /  16.1km/h 93% 0in /  0.0mm 39 W/m2
09:03 55 °F /  12.8 °C 53.1 °F /  11.7 °C 30.2in /  1022.4hPa Calm   4mph /  6.4km/h 93% 0in /  0.0mm 37 W/m2
09:08 55 °F /  12.8 °C 53.1 °F /  11.7 °C 30.2in /  1022.4hPa NW 2mph /  3.2km/h 8mph /  12.9km/h 93% 0in /  0.0mm 26 W/m2
09:13 55 °F /  12.8 °C 53.1 °F /  11.7 °C 30.2in /  1022.4hPa Calm   3mph /  4.8km/h 93% 0in /  0.0mm 32 W/m2
09:18 55 °F /  12.8 °C 53.1 °F /  11.7 °C 30.2in /  1022.4hPa WNW 0.9mph /  1.4km/h 3mph /  4.8km/h 93% 0in /  0.0mm 25 W/m2
09:23 55 °F /  12.8 °C 53.1 °F /  11.7 °C 30.2in /  1022.4hPa NW 0.9mph /  1.4km/h 2mph /  3.2km/h 93% 0in /  0.0mm 49 W/m2
09:28 55 °F /  12.8 °C 53.1 °F /  11.7 °C 30.2in /  1022.4hPa WNW 0.9mph /  1.4km/h 6mph /  9.7km/h 93% 0in /  0.0mm 56 W/m2
09:33 55.2 °F /  12.9 °C 53.2 °F /  11.8 °C 30.2in /  1022.4hPa ENE 4mph /  6.4km/h 5mph /  8km/h 93% 0in /  0.0mm 60 W/m2
09:38 55.2 °F /  12.9 °C 53.2 °F /  11.8 °C 30.2in /  1022.4hPa Calm   2mph /  3.2km/h 93% 0in /  0.0mm 60 W/m2
09:43 55.2 °F /  12.9 °C 53.2 °F /  11.8 °C 30.2in /  1022.7hPa WNW 2mph /  3.2km/h 7mph /  11.3km/h 93% 0in /  0.0mm 65 W/m2
09:48 55.4 °F /  13 °C 53.4 °F /  11.9 °C 30.2in /  1022.7hPa WNW 2mph /  3.2km/h 6mph /  9.7km/h 93% 0in /  0.0mm 86 W/m2
09:53 55.6 °F /  13.1 °C 53.2 °F /  11.8 °C 30.2in /  1022.4hPa WNW 0.9mph /  1.4km/h 5mph /  8km/h 92% 0in /  0.0mm 86 W/m2
09:58 55.8 °F /  13.2 °C 53.4 °F /  11.9 °C 30.2in /  1022.7hPa WNW 0.9mph /  1.4km/h 4mph /  6.4km/h 92% 0in /  0.0mm 95 W/m2
10:03 55.8 °F /  13.2 °C 53.4 °F /  11.9 °C 30.2in /  1022.7hPa NW 2mph /  3.2km/h 3mph /  4.8km/h 92% 0in /  0.0mm 91 W/m2
10:08 55.8 °F /  13.2 °C 53.4 °F /  11.9 °C 30.2in /  1022.7hPa WNW 2mph /  3.2km/h 5mph /  8km/h 92% 0in /  0.0mm 114 W/m2
10:13 55.9 °F /  13.3 °C 53.6 °F /  12 °C 30.2in /  1022.7hPa Calm   2mph /  3.2km/h 92% 0in /  0.0mm 81 W/m2
10:18 55.9 °F /  13.3 °C 53.6 °F /  12 °C 30.2in /  1022.7hPa Calm   7mph /  11.3km/h 92% 0in /  0.0mm 54 W/m2
10:23 56.1 °F /  13.4 °C 53.6 °F /  12 °C 30.2in /  1023.0hPa North 0.9mph /  1.4km/h 3mph /  4.8km/h 91% 0in /  0.0mm 62 W/m2
10:28 56.1 °F /  13.4 °C 53.6 °F /  12 °C 30.2in /  1023.0hPa Calm   4mph /  6.4km/h 91% 0in /  0.0mm 63 W/m2
10:33 56.1 °F /  13.4 °C 53.6 °F /  12 °C 30.2in /  1023.0hPa Calm   2mph /  3.2km/h 91% 0in /  0.0mm 33 W/m2
10:38 56.1 °F /  13.4 °C 53.6 °F /  12 °C 30.2in /  1023.0hPa Calm   2mph /  3.2km/h 91% 0in /  0.0mm 60 W/m2
10:43 56.1 °F /  13.4 °C 53.6 °F /  12 °C 30.2in /  1023.0hPa Calm   1mph /  1.6km/h 91% 0in /  0.0mm 72 W/m2
10:48 56.1 °F /  13.4 °C 53.6 °F /  12 °C 30.2in /  1023.0hPa NW 2mph /  3.2km/h 7mph /  11.3km/h 91% 0in /  0.0mm 113 W/m2
10:53 56.1 °F /  13.4 °C 53.6 °F /  12 °C 30.2in /  1023.0hPa WNW 2.9mph /  4.7km/h 7mph /  11.3km/h 91% 0in /  0.0mm 56 W/m2
10:59 56.3 °F /  13.5 °C 53.4 °F /  11.9 °C 30.2in /  1023.0hPa SE 4mph /  6.4km/h 8mph /  12.9km/h 90% 0in /  0.0mm 83 W/m2
11:04 56.5 °F /  13.6 °C 53.6 °F /  12 °C 30.2in /  1023.0hPa NW 2.9mph /  4.7km/h 6mph /  9.7km/h 90% 0in /  0.0mm 104 W/m2
11:09 56.5 °F /  13.6 °C 53.6 °F /  12 °C 30.2in /  1023.0hPa WNW 2.9mph /  4.7km/h 8mph /  12.9km/h 90% 0in /  0.0mm 86 W/m2
11:14 56.3 °F /  13.5 °C 53.8 °F /  12.1 °C 30.2in /  1023.0hPa West 2mph /  3.2km/h 4mph /  6.4km/h 91% 0in /  0.0mm 153 W/m2
11:19 56.3 °F /  13.5 °C 53.8 °F /  12.1 °C 30.2in /  1023.0hPa WNW 2mph /  3.2km/h 3mph /  4.8km/h 91% 0in /  0.0mm 91 W/m2
11:24 56.3 °F /  13.5 °C 53.8 °F /  12.1 °C 30.2in /  1023.4hPa West 2mph /  3.2km/h 9mph /  14.5km/h 91% 0in /  0.0mm 165 W/m2
11:29 56.3 °F /  13.5 °C 53.8 °F /  12.1 °C 30.2in /  1023.0hPa NNW 2mph /  3.2km/h 2mph /  3.2km/h 91% 0in /  0.0mm 155 W/m2
11:34 56.5 °F /  13.6 °C 54.1 °F /  12.3 °C 30.2in /  1023.0hPa WSW 2.9mph /  4.7km/h 8mph /  12.9km/h 92% 0in /  0.0mm 162 W/m2
11:39 56.5 °F /  13.6 °C 54 °F /  12.2 °C 30.2in /  1023.0hPa North 2mph /  3.2km/h 7mph /  11.3km/h 91% 0in /  0.0mm 163 W/m2
11:44 56.5 °F /  13.6 °C 54 °F /  12.2 °C 30.2in /  1023.0hPa NW 0.9mph /  1.4km/h 6mph /  9.7km/h 91% 0in /  0.0mm 130 W/m2
11:49 56.7 °F /  13.7 °C 54.1 °F /  12.3 °C 30.2in /  1023.0hPa WNW 0.9mph /  1.4km/h 6mph /  9.7km/h 91% 0in /  0.0mm 130 W/m2
11:54 56.8 °F /  13.8 °C 54.3 °F /  12.4 °C 30.2in /  1023.0hPa SW 0.9mph /  1.4km/h 8mph /  12.9km/h 91% 0in /  0.0mm 188 W/m2
11:59 56.8 °F /  13.8 °C 54 °F /  12.2 °C 30.2in /  1023.0hPa NW 0.9mph /  1.4km/h 4mph /  6.4km/h 90% 0in /  0.0mm 113 W/m2
12:04 57 °F /  13.9 °C 54.1 °F /  12.3 °C 30.2in /  1023.4hPa NNW 2mph /  3.2km/h 8mph /  12.9km/h 90% 0in /  0.0mm 84 W/m2
12:09 57 °F /  13.9 °C 53.8 °F /  12.1 °C 30.2in /  1023.0hPa West 0.9mph /  1.4km/h 3mph /  4.8km/h 89% 0in /  0.0mm 86 W/m2
12:14 57 °F /  13.9 °C 53.8 °F /  12.1 °C 30.2in /  1023.4hPa West 2mph /  3.2km/h 7mph /  11.3km/h 89% 0in /  0.0mm 88 W/m2
12:19 57 °F /  13.9 °C 53.8 °F /  12.1 °C 30.2in /  1023.0hPa West 2mph /  3.2km/h 3mph /  4.8km/h 89% 0in /  0.0mm 171 W/m2
12:24 57 °F /  13.9 °C 53.8 °F /  12.1 °C 30.2in /  1023.4hPa West 2.9mph /  4.7km/h 3mph /  4.8km/h 89% 0in /  0.0mm 109 W/m2
12:29 57 °F /  13.9 °C 53.8 °F /  12.1 °C 30.2in /  1023.0hPa WNW 2mph /  3.2km/h 4mph /  6.4km/h 89% 0in /  0.0mm 169 W/m2
12:34 57 °F /  13.9 °C 54.1 °F /  12.3 °C 30.2in /  1023.0hPa NW 2mph /  3.2km/h 3mph /  4.8km/h 90% 0in /  0.0mm 69 W/m2
12:39 57 °F /  13.9 °C 53.8 °F /  12.1 °C 30.2in /  1023.0hPa NW 0.9mph /  1.4km/h 3mph /  4.8km/h 89% 0in /  0.0mm 81 W/m2
12:44 57 °F /  13.9 °C 53.8 °F /  12.1 °C 30.2in /  1023.0hPa West 2mph /  3.2km/h 6mph /  9.7km/h 89% 0in /  0.0mm 76 W/m2
12:49 56.8 °F /  13.8 °C 53.6 °F /  12 °C 30.2in /  1023.0hPa WNW 4mph /  6.4km/h 11mph /  17.7km/h 89% 0in /  0.0mm 74 W/m2
12:54 56.8 °F /  13.8 °C 53.6 °F /  12 °C 30.2in /  1023.0hPa NNW 0.9mph /  1.4km/h 2mph /  3.2km/h 89% 0in /  0.0mm 118 W/m2
12:59 56.7 °F /  13.7 °C 53.8 °F /  12.1 °C 30.2in /  1023.0hPa NW 0.9mph /  1.4km/h 11mph /  17.7km/h 90% 0in /  0.0mm 113 W/m2
13:04 56.8 °F /  13.8 °C 54 °F /  12.2 °C 30.2in /  1023.4hPa WSW 6.9mph /  11.1km/h 10mph /  16.1km/h 90% 0in /  0.0mm 155 W/m2
13:09 56.8 °F /  13.8 °C 53.6 °F /  12 °C 30.2in /  1023.4hPa WNW 2mph /  3.2km/h 9mph /  14.5km/h 89% 0in /  0.0mm 127 W/m2
13:14 57 °F /  13.9 °C 53.8 °F /  12.1 °C 30.2in /  1023.0hPa NW 2.9mph /  4.7km/h 10mph /  16.1km/h 89% 0in /  0.0mm 127 W/m2
13:19 57.2 °F /  14 °C 53.6 °F /  12 °C 30.2in /  1023.0hPa Calm   5mph /  8km/h 88% 0in /  0.0mm 139 W/m2
13:24 57.4 °F /  14.1 °C 53.8 °F /  12.1 °C 30.2in /  1023.0hPa WNW 2.9mph /  4.7km/h 8mph /  12.9km/h 88% 0in /  0.0mm 142 W/m2
13:29 57.6 °F /  14.2 °C 54 °F /  12.2 °C 30.2in /  1023.0hPa South 0.9mph /  1.4km/h 7mph /  11.3km/h 88% 0in /  0.0mm 183 W/m2
13:34 57.7 °F /  14.3 °C 54.1 °F /  12.3 °C 30.2in /  1023.0hPa Calm   8mph /  12.9km/h 88% 0in /  0.0mm 135 W/m2
13:39 57.9 °F /  14.4 °C 54.1 °F /  12.3 °C 30.2in /  1023.0hPa West 2mph /  3.2km/h 10mph /  16.1km/h 87% 0in /  0.0mm 95 W/m2
13:44 57.9 °F /  14.4 °C 53.8 °F /  12.1 °C 30.2in /  1023.0hPa West 0.9mph /  1.4km/h 4mph /  6.4km/h 86% 0in /  0.0mm 114 W/m2
13:49 57.9 °F /  14.4 °C 53.8 °F /  12.1 °C 30.2in /  1023.0hPa WNW 4.9mph /  7.9km/h 6mph /  9.7km/h 86% 0in /  0.0mm 120 W/m2
13:54 57.9 °F /  14.4 °C 53.8 °F /  12.1 °C 30.2in /  1023.0hPa Calm   4mph /  6.4km/h 86% 0in /  0.0mm 121 W/m2
13:59 57.9 °F /  14.4 °C 53.8 °F /  12.1 °C 30.2in /  1023.0hPa West 0.9mph /  1.4km/h 6mph /  9.7km/h 86% 0in /  0.0mm 111 W/m2
14:04 57.9 °F /  14.4 °C 53.8 °F /  12.1 °C 30.2in /  1023.0hPa South 0.9mph /  1.4km/h 4mph /  6.4km/h 86% 0in /  0.0mm 111 W/m2
14:09 57.9 °F /  14.4 °C 53.8 °F /  12.1 °C 30.2in /  1023.0hPa NNW 0.9mph /  1.4km/h 4mph /  6.4km/h 86% 0in /  0.0mm 109 W/m2
14:14 57.9 °F /  14.4 °C 54.1 °F /  12.3 °C 30.2in /  1023.0hPa WNW 2.9mph /  4.7km/h 4mph /  6.4km/h 87% 0in /  0.0mm 107 W/m2
14:19 57.9 °F /  14.4 °C 53.8 °F /  12.1 °C 30.2in /  1023.0hPa SSW 0.9mph /  1.4km/h 5mph /  8km/h 86% 0in /  0.0mm 118 W/m2
14:24 58.1 °F /  14.5 °C 54.3 °F /  12.4 °C 30.2in /  1023.0hPa Calm   1mph /  1.6km/h 87% 0in /  0.0mm 156 W/m2
Juneau County Weather
Compliments of Weather Underground - 2 mb